createdAt,value
2019-03-24T00:01:41.392Z,45.43
2019-03-24T00:04:09.924Z,34.70
2019-03-24T00:06:40.796Z,40.33
2019-03-24T00:09:11.748Z,33.40
2019-03-24T00:11:42.698Z,36.43
2019-03-24T00:14:13.402Z,35.37
2019-03-24T00:16:44.049Z,34.83
2019-03-24T00:19:14.930Z,35.95
2019-03-24T00:21:45.833Z,40.40
2019-03-24T00:24:16.699Z,35.23
2019-03-24T00:26:47.307Z,37.67
2019-03-24T00:29:17.910Z,41.70
2019-03-24T00:31:48.760Z,42.07
2019-03-24T00:34:19.369Z,39.87
2019-03-24T00:36:49.976Z,42.07
2019-03-24T00:39:20.848Z,41.63
2019-03-24T00:41:51.451Z,43.40
2019-03-24T00:44:22.162Z,45.53
2019-03-24T00:46:52.862Z,37.40
2019-03-24T00:49:23.528Z,38.70
2019-03-24T00:51:54.157Z,37.47
2019-03-24T00:54:25.175Z,41.40
2019-03-24T00:56:55.906Z,37.97
2019-03-24T00:59:26.747Z,35.80
2019-03-24T01:01:57.418Z,37.43
2019-03-24T01:04:28.063Z,35.97
2019-03-24T01:07:00.318Z,34.20
2019-03-24T01:09:30.933Z,37.87
2019-03-24T01:12:06.541Z,38.02
2019-03-24T01:14:37.318Z,33.23
2019-03-24T01:17:08.333Z,35.70
2019-03-24T01:19:38.949Z,38.37
2019-03-24T01:22:09.726Z,38.57
2019-03-24T01:24:40.541Z,33.33
2019-03-24T01:27:11.135Z,35.30
2019-03-24T01:29:43.616Z,36.33
2019-03-24T01:32:14.212Z,35.33
2019-03-24T01:34:44.798Z,40.27
2019-03-24T01:37:15.724Z,34.73
2019-03-24T01:39:46.337Z,33.57
2019-03-24T01:42:16.932Z,32.93
2019-03-24T01:44:47.735Z,36.80
2019-03-24T01:47:18.346Z,36.77
2019-03-24T01:49:48.962Z,35.33
2019-03-24T01:52:19.883Z,36.63
2019-03-24T01:54:50.494Z,36.33
2019-03-24T01:57:21.690Z,32.37
2019-03-24T01:59:52.404Z,34.77
2019-03-24T02:02:23.095Z,36.70
2019-03-24T02:04:53.772Z,34.80
2019-03-24T02:07:24.614Z,33.00
2019-03-24T02:09:55.445Z,37.90
2019-03-24T02:12:26.213Z,33.70
2019-03-24T02:14:56.915Z,38.20
2019-03-24T02:17:27.861Z,36.00
2019-03-24T02:19:58.611Z,31.53
2019-03-24T02:22:29.169Z,35.07
2019-03-24T02:24:59.972Z,36.90
2019-03-24T02:27:30.808Z,34.70
2019-03-24T02:30:01.513Z,34.43
2019-03-24T02:32:33.758Z,32.10
2019-03-24T02:35:06.110Z,33.50
2019-03-24T02:37:36.834Z,33.73
2019-03-24T02:40:07.565Z,32.30
2019-03-24T02:42:38.246Z,34.40
2019-03-24T02:45:10.305Z,34.90
2019-03-24T02:47:40.974Z,36.10
2019-03-24T02:50:11.945Z,33.40
2019-03-24T02:52:43.733Z,38.23
2019-03-24T02:55:14.543Z,34.00
2019-03-24T02:57:45.153Z,32.60
2019-03-24T03:00:17.689Z,35.93
2019-03-24T03:02:48.348Z,33.70
2019-03-24T03:05:19.259Z,35.07
2019-03-24T03:07:52.351Z,35.30
2019-03-24T03:10:23.132Z,26.77
2019-03-24T03:12:53.937Z,30.80
2019-03-24T03:15:24.591Z,32.27
2019-03-24T03:17:55.164Z,33.77
2019-03-24T03:20:25.770Z,34.43
2019-03-24T03:22:56.356Z,34.77
2019-03-24T03:25:27.227Z,33.63
2019-03-24T03:27:58.015Z,35.60
2019-03-24T03:30:28.736Z,37.23
2019-03-24T03:32:59.473Z,34.50
2019-03-24T03:35:30.261Z,36.70
2019-03-24T03:38:01.265Z,34.73
2019-03-24T03:40:32.527Z,33.30
2019-03-24T03:43:03.458Z,36.27
2019-03-24T03:45:34.112Z,31.93
2019-03-24T03:48:04.721Z,30.37
2019-03-24T03:50:35.336Z,39.70
2019-03-24T03:53:06.511Z,30.67
2019-03-24T03:55:37.250Z,32.37
2019-03-24T03:58:07.913Z,36.40
2019-03-24T04:00:38.675Z,34.87
2019-03-24T04:03:09.520Z,37.00
2019-03-24T04:05:40.257Z,35.43
2019-03-24T04:08:10.983Z,34.50
2019-03-24T04:10:42.862Z,37.53
2019-03-24T04:13:13.449Z,34.43
2019-03-24T04:15:47.262Z,35.33
2019-03-24T04:18:18.056Z,35.03
2019-03-24T04:20:48.668Z,37.00
2019-03-24T04:23:19.423Z,32.70
2019-03-24T04:25:50.286Z,34.47
2019-03-24T04:28:21.077Z,29.77
2019-03-24T04:30:51.671Z,37.03
2019-03-24T04:33:22.383Z,34.93
2019-03-24T04:35:52.984Z,32.67
2019-03-24T04:38:23.611Z,33.23
2019-03-24T04:40:54.406Z,32.63
2019-03-24T04:43:25.053Z,36.40
2019-03-24T04:45:55.620Z,37.50
2019-03-24T04:48:26.398Z,34.10
2019-03-24T04:50:57.007Z,36.13
2019-03-24T04:53:27.658Z,34.73
2019-03-24T04:55:58.412Z,33.30
2019-03-24T04:58:28.981Z,32.00
2019-03-24T05:00:59.671Z,35.03
2019-03-24T05:03:31.620Z,32.40
2019-03-24T05:06:03.812Z,31.03
2019-03-24T05:08:34.852Z,27.53
2019-03-24T05:11:06.033Z,36.03
2019-03-24T05:13:36.589Z,29.90
2019-03-24T05:16:07.806Z,36.35
2019-03-24T05:18:38.526Z,36.30
2019-03-24T05:21:09.144Z,32.47
2019-03-24T05:23:39.707Z,32.63
2019-03-24T05:26:10.693Z,36.45
2019-03-24T05:28:41.563Z,38.63
2019-03-24T05:31:12.163Z,35.83
2019-03-24T05:33:45.175Z,36.37
2019-03-24T05:36:15.667Z,37.83
2019-03-24T05:38:46.252Z,41.33
2019-03-24T05:41:16.807Z,33.73
2019-03-24T05:43:47.539Z,36.27
2019-03-24T05:46:18.122Z,36.00
2019-03-24T05:48:51.050Z,37.50
2019-03-24T05:51:22.829Z,37.60
2019-03-24T05:53:53.475Z,39.70
2019-03-24T05:56:24.056Z,33.70
2019-03-24T05:58:54.777Z,36.40
2019-03-24T06:01:25.307Z,36.67
2019-03-24T06:03:55.904Z,35.77
2019-03-24T06:06:27.124Z,35.67
2019-03-24T06:08:58.235Z,36.20
2019-03-24T06:11:28.974Z,36.30
2019-03-24T06:13:59.744Z,36.80
2019-03-24T06:16:30.367Z,38.27
2019-03-24T06:19:00.971Z,31.33
2019-03-24T06:21:34.161Z,30.77
2019-03-24T06:24:05.255Z,37.50
2019-03-24T06:26:36.077Z,34.40
2019-03-24T06:29:07.017Z,32.77
2019-03-24T06:31:37.973Z,36.17
2019-03-24T06:34:08.578Z,40.10
2019-03-24T06:36:39.175Z,36.57
2019-03-24T06:39:10.066Z,36.03
2019-03-24T06:41:40.907Z,34.07
2019-03-24T06:44:11.500Z,30.87
2019-03-24T06:46:42.270Z,34.93
2019-03-24T06:49:13.167Z,33.73
2019-03-24T06:51:44.250Z,31.47
2019-03-24T06:54:15.104Z,31.62
2019-03-24T06:56:45.693Z,34.40
2019-03-24T06:59:16.280Z,34.97
2019-03-24T07:01:47.158Z,34.30
2019-03-24T07:04:17.746Z,26.20
2019-03-24T07:06:48.394Z,27.60
2019-03-24T07:09:19.151Z,29.03
2019-03-24T07:11:50.066Z,29.87
2019-03-24T07:14:20.678Z,29.37
2019-03-24T07:16:51.361Z,31.47
2019-03-24T07:19:22.516Z,30.23
2019-03-24T07:21:53.172Z,30.77
2019-03-24T07:24:24.022Z,28.93
2019-03-24T07:26:54.748Z,32.83
2019-03-24T07:29:25.515Z,31.20
2019-03-24T07:31:56.264Z,29.43
2019-03-24T07:34:27.137Z,28.77
2019-03-24T07:36:57.735Z,30.97
2019-03-24T07:39:28.561Z,31.37
2019-03-24T07:41:59.389Z,28.50
2019-03-24T07:44:30.195Z,31.03
2019-03-24T07:47:02.295Z,33.90
2019-03-24T07:49:33.131Z,34.43
2019-03-24T07:52:04.455Z,33.42
2019-03-24T07:54:35.177Z,34.50
2019-03-24T07:57:06.831Z,33.87
2019-03-24T07:59:39.139Z,32.03
2019-03-24T08:02:09.753Z,35.63
2019-03-24T08:04:40.341Z,40.67
2019-03-24T08:07:10.969Z,33.85
2019-03-24T08:09:41.599Z,34.87
2019-03-24T08:12:12.555Z,39.70
2019-03-24T08:14:43.409Z,32.70
2019-03-24T08:17:14.571Z,30.52
2019-03-24T08:19:46.804Z,34.20
2019-03-24T08:22:17.521Z,29.43
2019-03-24T08:24:48.455Z,38.00
2019-03-24T08:27:19.338Z,37.20
2019-03-24T08:29:49.952Z,32.00
2019-03-24T08:32:20.556Z,35.27
2019-03-24T08:34:51.556Z,33.80
2019-03-24T08:37:22.579Z,37.15
2019-03-24T08:39:53.362Z,35.83
2019-03-24T08:42:23.974Z,38.07
2019-03-24T08:44:54.562Z,33.17
2019-03-24T08:47:25.795Z,37.30
2019-03-24T08:49:56.566Z,35.90
2019-03-24T08:52:27.455Z,34.90
2019-03-24T08:54:59.829Z,36.90
2019-03-24T08:57:32.386Z,44.40
2019-03-24T09:00:03.950Z,39.43
2019-03-24T09:02:35.002Z,43.27
2019-03-24T09:05:06.270Z,42.20
2019-03-24T09:07:36.915Z,43.67
2019-03-24T09:10:08.980Z,42.40
2019-03-24T09:12:39.689Z,42.13
2019-03-24T09:15:11.049Z,42.75
2019-03-24T09:17:41.838Z,40.93
2019-03-24T09:20:13.518Z,45.50
2019-03-24T09:22:44.178Z,46.20
2019-03-24T09:25:14.955Z,47.40
2019-03-24T09:27:45.860Z,44.80
2019-03-24T09:30:37.058Z,44.20
2019-03-24T09:33:07.879Z,41.10
2019-03-24T09:35:50.793Z,41.20
2019-03-24T09:38:14.100Z,45.70
2019-03-24T09:40:44.802Z,45.20
2019-03-24T09:43:15.736Z,42.83
2019-03-24T09:45:47.153Z,44.20
2019-03-24T09:48:17.818Z,47.17
2019-03-24T09:50:49.147Z,42.60
2019-03-24T09:53:19.878Z,44.10
2019-03-24T09:55:50.983Z,46.53
2019-03-24T09:58:21.831Z,45.10
2019-03-24T10:00:52.539Z,44.90
2019-03-24T10:03:23.245Z,45.43
2019-03-24T10:05:53.868Z,45.30
2019-03-24T10:08:24.735Z,49.87
2019-03-24T10:10:55.363Z,40.50
2019-03-24T10:13:25.959Z,45.67
2019-03-24T10:15:56.768Z,49.57
2019-03-24T10:18:27.390Z,50.13
2019-03-24T10:20:58.362Z,45.90
2019-03-24T10:23:29.030Z,45.83
2019-03-24T10:25:59.903Z,47.90
2019-03-24T10:28:30.814Z,48.90
2019-03-24T10:31:01.417Z,47.27
2019-03-24T10:33:32.125Z,46.17
2019-03-24T10:36:02.909Z,46.47
2019-03-24T10:38:33.565Z,46.83
2019-03-24T10:41:05.134Z,51.30
2019-03-24T10:43:36.964Z,52.53
2019-03-24T10:46:07.629Z,44.80
2019-03-24T10:48:38.354Z,43.97
2019-03-24T10:51:10.301Z,49.70
2019-03-24T10:53:41.018Z,49.97
2019-03-24T10:56:12.103Z,48.95
2019-03-24T10:58:43.215Z,46.50
2019-03-24T11:01:14.107Z,49.85
2019-03-24T11:03:44.965Z,46.33
2019-03-24T11:06:15.594Z,44.10
2019-03-24T11:08:46.189Z,46.23
2019-03-24T11:11:17.073Z,50.00
2019-03-24T11:13:47.773Z,45.30
2019-03-24T11:16:18.478Z,45.57
2019-03-24T11:18:50.179Z,47.50
2019-03-24T11:21:21.046Z,41.05
2019-03-24T11:23:53.669Z,47.67
2019-03-24T11:26:24.460Z,46.27
2019-03-24T11:28:55.146Z,44.97
2019-03-24T11:31:27.326Z,50.40
2019-03-24T11:33:58.095Z,43.27
2019-03-24T11:36:28.687Z,50.13
2019-03-24T11:38:59.304Z,47.20
2019-03-24T11:41:30.132Z,45.17
2019-03-24T11:44:00.763Z,46.97
2019-03-24T11:46:31.555Z,49.83
2019-03-24T11:49:02.181Z,51.33
2019-03-24T11:51:32.778Z,51.90
2019-03-24T11:54:03.415Z,44.63
2019-03-24T11:56:34.160Z,42.97
2019-03-24T11:59:05.478Z,46.58
2019-03-24T12:01:38.383Z,47.43
2019-03-24T12:04:08.499Z,45.33
2019-03-24T12:06:39.198Z,47.20
2019-03-24T12:09:09.899Z,49.97
2019-03-24T12:11:40.539Z,43.60
2019-03-24T12:14:11.727Z,45.23
2019-03-24T12:16:42.315Z,44.70
2019-03-24T12:19:13.306Z,45.40
2019-03-24T12:21:45.251Z,48.40
2019-03-24T12:24:15.872Z,46.80
2019-03-24T12:26:46.532Z,45.80
2019-03-24T12:29:19.223Z,45.83
2019-03-24T12:31:51.383Z,44.30
2019-03-24T12:34:22.339Z,47.03
2019-03-24T12:36:53.001Z,45.07
2019-03-24T12:39:23.825Z,46.90
2019-03-24T12:41:54.498Z,43.83
2019-03-24T12:44:25.394Z,43.43
2019-03-24T12:46:55.988Z,43.60
2019-03-24T12:49:26.626Z,42.23
2019-03-24T12:51:57.507Z,43.37
2019-03-24T12:54:28.350Z,43.87
2019-03-24T12:56:58.994Z,45.47
2019-03-24T12:59:29.622Z,45.40
2019-03-24T13:02:00.380Z,40.60
2019-03-24T13:04:31.004Z,42.10
2019-03-24T13:07:01.648Z,45.43
2019-03-24T13:09:33.655Z,49.00
2019-03-24T13:12:05.848Z,43.87
2019-03-24T13:14:37.697Z,53.60
2019-03-24T13:17:08.668Z,42.73
2019-03-24T13:19:39.581Z,45.27
2019-03-24T13:22:10.774Z,44.30
2019-03-24T13:24:41.657Z,47.90
2019-03-24T13:27:12.545Z,46.75
2019-03-24T13:29:43.546Z,37.93
2019-03-24T13:32:14.753Z,40.20
2019-03-24T13:34:45.601Z,40.17
2019-03-24T13:37:16.521Z,43.87
2019-03-24T13:39:47.176Z,37.63
2019-03-24T13:42:17.775Z,41.57
2019-03-24T13:44:48.556Z,42.30
2019-03-24T13:47:19.134Z,41.30
2019-03-24T13:49:49.926Z,39.93
2019-03-24T13:52:20.805Z,38.60
2019-03-24T13:54:51.660Z,36.80
2019-03-24T13:57:22.354Z,38.07
2019-03-24T13:59:52.966Z,35.57
2019-03-24T14:02:24.140Z,40.10
2019-03-24T14:04:55.010Z,41.90
2019-03-24T14:07:25.759Z,38.80
2019-03-24T14:09:56.497Z,40.53
2019-03-24T14:12:27.152Z,40.33
2019-03-24T14:14:57.838Z,45.50
2019-03-24T14:17:28.672Z,39.40
2019-03-24T14:19:59.607Z,36.10
2019-03-24T14:22:30.274Z,43.27
2019-03-24T14:25:01.943Z,41.77
2019-03-24T14:27:32.727Z,38.10
2019-03-24T14:30:03.472Z,41.00
2019-03-24T14:32:34.186Z,39.43
2019-03-24T14:35:06.560Z,39.83
2019-03-24T14:37:37.144Z,37.27
2019-03-24T14:40:09.888Z,40.90
2019-03-24T14:42:40.777Z,46.43
2019-03-24T14:45:11.641Z,42.10
2019-03-24T14:47:42.283Z,41.73
2019-03-24T14:50:13.760Z,40.97
2019-03-24T14:52:44.338Z,37.00
2019-03-24T14:55:15.320Z,41.90
2019-03-24T14:57:45.941Z,32.83
2019-03-24T15:00:20.670Z,41.53
2019-03-24T15:02:51.676Z,42.97
2019-03-24T15:05:22.292Z,38.35
2019-03-24T15:07:52.898Z,41.07
2019-03-24T15:10:23.572Z,41.93
2019-03-24T15:12:54.291Z,40.40
2019-03-24T15:15:25.475Z,42.87
2019-03-24T15:17:56.112Z,42.63
2019-03-24T15:20:27.072Z,45.03
2019-03-24T15:22:58.087Z,43.23
2019-03-24T15:25:28.982Z,42.87
2019-03-24T15:27:59.801Z,39.60
2019-03-24T15:30:30.351Z,42.73
2019-03-24T15:33:01.030Z,38.77
2019-03-24T15:35:31.678Z,40.43
2019-03-24T15:38:08.444Z,37.13
2019-03-24T15:40:36.297Z,40.40
2019-03-24T15:43:07.161Z,39.70
2019-03-24T15:45:39.053Z,39.63
2019-03-24T15:48:09.735Z,43.10
2019-03-24T15:50:41.562Z,40.03
2019-03-24T15:53:12.264Z,40.15
2019-03-24T15:55:43.084Z,43.30
2019-03-24T15:58:13.903Z,41.23
2019-03-24T16:00:49.256Z,43.23
2019-03-24T16:03:20.268Z,37.20
2019-03-24T16:05:51.481Z,38.80
2019-03-24T16:08:22.262Z,41.97
2019-03-24T16:10:53.225Z,37.17
2019-03-24T16:13:24.146Z,43.58
2019-03-24T16:15:54.767Z,39.33
2019-03-24T16:18:25.378Z,40.57
2019-03-24T16:20:56.242Z,37.87
2019-03-24T16:23:26.866Z,39.60
2019-03-24T16:25:58.559Z,45.90
2019-03-24T16:28:30.342Z,40.60
2019-03-24T16:31:04.596Z,39.70
2019-03-24T16:33:35.284Z,39.93
2019-03-24T16:36:06.618Z,38.95
2019-03-24T16:38:48.309Z,37.67
2019-03-24T16:41:09.712Z,38.17
2019-03-24T16:43:42.217Z,40.70
2019-03-24T16:46:12.885Z,42.07
2019-03-24T16:48:43.618Z,41.30
2019-03-24T16:51:14.716Z,37.42
2019-03-24T16:53:45.394Z,43.83
2019-03-24T16:56:16.637Z,42.93
2019-03-24T16:58:47.418Z,41.67
2019-03-24T17:01:21.104Z,41.83
2019-03-24T17:03:52.470Z,40.60
2019-03-24T17:06:23.742Z,43.08
2019-03-24T17:08:54.714Z,44.87
2019-03-24T17:11:25.571Z,43.87
2019-03-24T17:13:56.622Z,45.63
2019-03-24T17:16:28.596Z,49.17
2019-03-24T17:18:59.395Z,44.10
2019-03-24T17:21:30.499Z,48.13
2019-03-24T17:24:01.437Z,41.77
2019-03-24T17:26:32.760Z,46.17
2019-03-24T17:29:03.492Z,47.47
2019-03-24T17:31:34.200Z,44.97
2019-03-24T17:34:04.928Z,45.80
2019-03-24T17:36:35.592Z,44.27
2019-03-24T17:39:08.304Z,43.23
2019-03-24T17:41:39.015Z,42.27
2019-03-24T17:44:10.078Z,45.03
2019-03-24T17:46:43.953Z,46.20
2019-03-24T17:49:14.590Z,45.10
2019-03-24T17:51:45.591Z,41.47
2019-03-24T17:54:16.595Z,41.70
2019-03-24T17:56:47.582Z,44.90
2019-03-24T17:59:18.302Z,42.50
2019-03-24T18:01:50.635Z,43.60
2019-03-24T18:04:24.504Z,41.23
2019-03-24T18:06:54.345Z,45.77
2019-03-24T18:09:25.182Z,44.13
2019-03-24T18:11:57.444Z,49.70
2019-03-24T18:14:28.383Z,46.87
2019-03-24T18:16:59.082Z,47.30
2019-03-24T18:19:31.776Z,48.83
2019-03-24T18:22:18.539Z,51.77
2019-03-24T18:24:49.580Z,52.00
2019-03-24T18:27:20.472Z,53.25
2019-03-24T18:29:51.202Z,49.03
2019-03-24T18:32:23.278Z,51.10
2019-03-24T18:34:54.149Z,45.37
2019-03-24T18:37:24.789Z,58.10
2019-03-24T18:39:55.736Z,52.80
2019-03-24T18:42:27.587Z,54.30
2019-03-24T18:45:06.073Z,58.70
2019-03-24T18:47:39.269Z,64.50
2019-03-24T18:50:10.603Z,59.27
2019-03-24T18:52:41.341Z,62.70
2019-03-24T18:55:12.642Z,62.10
2019-03-24T18:57:51.321Z,61.40
2019-03-24T19:00:24.480Z,64.62
2019-03-24T19:02:55.427Z,63.07
2019-03-24T19:05:26.103Z,63.67
2019-03-24T19:07:56.887Z,66.77
2019-03-24T19:10:28.015Z,70.80
2019-03-24T19:12:59.016Z,66.87
2019-03-24T19:15:30.084Z,63.30
2019-03-24T19:18:01.085Z,57.27
2019-03-24T19:20:31.996Z,61.53
2019-03-24T19:23:03.115Z,66.33
2019-03-24T19:25:34.053Z,63.53
2019-03-24T19:28:05.085Z,59.73
2019-03-24T19:30:37.817Z,56.43
2019-03-24T19:33:08.735Z,61.40
2019-03-24T19:35:39.703Z,61.00
2019-03-24T19:38:11.267Z,62.37
2019-03-24T19:40:42.027Z,61.13
2019-03-24T19:43:13.190Z,59.77
2019-03-24T19:45:44.358Z,62.40
2019-03-24T19:48:15.357Z,67.30
2019-03-24T19:50:57.304Z,57.27
2019-03-24T19:53:28.228Z,63.33
2019-03-24T19:55:59.140Z,65.40
2019-03-24T19:58:30.095Z,60.80
2019-03-24T20:01:00.796Z,68.30
2019-03-24T20:03:31.506Z,61.70
2019-03-24T20:06:03.849Z,62.77
2019-03-24T20:08:34.670Z,61.73
2019-03-24T20:11:05.275Z,60.80
2019-03-24T20:13:36.172Z,61.30
2019-03-24T20:16:07.354Z,60.10
2019-03-24T20:18:38.363Z,60.10
2019-03-24T20:21:09.329Z,64.00
2019-03-24T20:23:40.285Z,66.77
2019-03-24T20:26:11.600Z,58.20
2019-03-24T20:28:42.624Z,58.60
2019-03-24T20:31:13.806Z,59.10
2019-03-24T20:33:44.774Z,64.97
2019-03-24T20:36:15.468Z,64.75
2019-03-24T20:38:46.283Z,62.80
2019-03-24T20:41:18.485Z,60.73
2019-03-24T20:43:49.548Z,61.50
2019-03-24T20:46:20.864Z,65.17
2019-03-24T20:48:51.513Z,61.27
2019-03-24T20:51:22.553Z,63.03
2019-03-24T20:53:53.339Z,67.43
2019-03-24T20:56:24.047Z,69.90
2019-03-24T20:58:54.704Z,72.87
2019-03-24T21:01:25.663Z,67.77
2019-03-24T21:03:56.711Z,78.63
2019-03-24T21:06:27.432Z,64.20
2019-03-24T21:08:58.053Z,69.30
2019-03-24T21:11:28.741Z,69.13
2019-03-24T21:13:59.580Z,73.00
2019-03-24T21:16:30.456Z,66.83
2019-03-24T21:19:01.394Z,65.13
2019-03-24T21:21:32.007Z,70.50
2019-03-24T21:24:02.881Z,77.77
2019-03-24T21:26:35.912Z,69.33
2019-03-24T21:29:07.761Z,73.95
2019-03-24T21:31:40.848Z,72.40
2019-03-24T21:34:11.824Z,70.03
2019-03-24T21:36:42.468Z,73.70
2019-03-24T21:39:13.678Z,81.17
2019-03-24T21:41:44.514Z,78.53
2019-03-24T21:44:15.198Z,76.67
2019-03-24T21:46:46.109Z,77.20
2019-03-24T21:49:16.952Z,72.70
2019-03-24T21:51:47.593Z,74.23
2019-03-24T21:54:18.290Z,81.57
2019-03-24T21:56:49.142Z,79.33
2019-03-24T21:59:19.952Z,79.13
2019-03-24T22:01:50.738Z,79.03
2019-03-24T22:04:23.188Z,82.60
2019-03-24T22:06:55.312Z,77.07
2019-03-24T22:09:26.030Z,81.57
2019-03-24T22:11:56.958Z,80.27
2019-03-24T22:14:27.778Z,76.63
2019-03-24T22:16:58.605Z,81.27
2019-03-24T22:19:29.203Z,92.37
2019-03-24T22:21:59.911Z,82.30
2019-03-24T22:24:30.721Z,84.33
2019-03-24T22:27:01.461Z,88.40
2019-03-24T22:29:32.105Z,85.80
2019-03-24T22:32:03.074Z,78.80
2019-03-24T22:34:33.742Z,82.93
2019-03-24T22:37:15.512Z,83.20
2019-03-24T22:39:38.194Z,84.90
2019-03-24T22:42:09.111Z,85.30
2019-03-24T22:44:39.758Z,87.00
2019-03-24T22:47:11.853Z,83.83
2019-03-24T22:49:42.762Z,84.20
2019-03-24T22:52:13.426Z,94.53
2019-03-24T22:54:44.282Z,88.60
2019-03-24T22:57:15.134Z,80.03
2019-03-24T22:59:46.231Z,76.87
2019-03-24T23:02:18.009Z,80.38
2019-03-24T23:04:48.937Z,86.00
2019-03-24T23:07:19.921Z,89.45
2019-03-24T23:09:50.805Z,79.00
2019-03-24T23:12:21.502Z,80.37
2019-03-24T23:14:52.214Z,85.83
2019-03-24T23:17:23.002Z,86.93
2019-03-24T23:19:53.878Z,77.07
2019-03-24T23:22:24.578Z,80.43
2019-03-24T23:24:55.217Z,74.10
2019-03-24T23:27:26.123Z,81.00
2019-03-24T23:29:57.975Z,83.50
2019-03-24T23:32:28.921Z,81.30
2019-03-24T23:34:59.691Z,80.80
2019-03-24T23:37:33.050Z,78.17
2019-03-24T23:40:05.063Z,72.47
2019-03-24T23:42:35.897Z,78.20
2019-03-24T23:45:07.152Z,81.10
2019-03-24T23:47:38.046Z,80.33
2019-03-24T23:50:09.455Z,76.30
2019-03-24T23:52:40.096Z,81.73
2019-03-24T23:55:11.592Z,84.23
2019-03-24T23:57:42.198Z,77.60
